createdAt,value
2019-02-11T00:01:26.836Z,8.05
2019-02-11T00:04:02.743Z,8.03
2019-02-11T00:06:34.929Z,8.08
2019-02-11T00:09:12.600Z,8.17
2019-02-11T00:11:45.894Z,8.12
2019-02-11T00:14:21.082Z,8.13
2019-02-11T00:16:57.031Z,8.12
2019-02-11T00:19:29.406Z,8.15
2019-02-11T00:22:04.684Z,8.19
2019-02-11T00:24:39.293Z,8.19
2019-02-11T00:27:16.418Z,8.19
2019-02-11T00:29:48.374Z,8.14
2019-02-11T00:32:20.854Z,8.16
2019-02-11T00:34:53.164Z,8.14
2019-02-11T00:37:25.349Z,8.13
2019-02-11T00:40:01.712Z,8.11
2019-02-11T00:42:33.935Z,8.06
2019-02-11T00:45:08.511Z,8.00
2019-02-11T00:47:43.491Z,8.00
2019-02-11T00:50:15.925Z,7.90
2019-02-11T00:52:50.062Z,7.81
2019-02-11T00:55:24.966Z,7.76
2019-02-11T00:58:01.374Z,7.70
2019-02-11T01:00:33.538Z,7.77
2019-02-11T01:03:05.402Z,7.73
2019-02-11T01:05:39.883Z,7.62
2019-02-11T01:08:13.754Z,7.65
2019-02-11T01:10:48.516Z,7.68
2019-02-11T01:13:27.433Z,7.61
2019-02-11T01:15:54.848Z,7.66
2019-02-11T01:18:30.290Z,7.54
2019-02-11T01:21:11.698Z,7.54
2019-02-11T01:23:49.237Z,7.46
2019-02-11T01:26:21.291Z,7.34
2019-02-11T01:28:53.074Z,7.32
2019-02-11T01:31:29.522Z,7.22
2019-02-11T01:34:06.544Z,7.23
2019-02-11T01:36:47.480Z,7.23
2019-02-11T01:39:19.842Z,7.24
2019-02-11T01:41:52.295Z,7.15
2019-02-11T01:44:27.727Z,7.13
2019-02-11T01:47:03.227Z,7.03
2019-02-11T01:49:37.476Z,6.59
2019-02-11T01:52:13.990Z,6.50
2019-02-11T01:54:47.941Z,6.35
2019-02-11T01:57:21.973Z,6.24
2019-02-11T01:59:54.362Z,6.14
2019-02-11T02:02:29.330Z,6.19
2019-02-11T02:05:13.291Z,6.15
2019-02-11T02:07:47.539Z,6.14
2019-02-11T02:10:19.861Z,6.21
2019-02-11T02:12:52.203Z,6.15
2019-02-11T02:15:25.393Z,6.09
2019-02-11T02:18:01.683Z,6.08
2019-02-11T02:20:37.170Z,6.12
2019-02-11T02:23:09.669Z,6.02
2019-02-11T02:25:43.241Z,5.93
2019-02-11T02:28:16.642Z,5.86
2019-02-11T02:30:48.880Z,5.76
2019-02-11T02:33:22.434Z,5.91
2019-02-11T02:35:54.670Z,6.08
2019-02-11T02:38:34.646Z,5.89
2019-02-11T02:41:06.911Z,5.70
2019-02-11T02:43:55.138Z,5.50
2019-02-11T02:46:19.520Z,5.33
2019-02-11T02:48:56.444Z,5.08
2019-02-11T02:51:31.309Z,5.05
2019-02-11T02:54:04.095Z,5.02
2019-02-11T02:56:37.335Z,5.04
2019-02-11T02:59:09.884Z,4.98
2019-02-11T03:01:43.978Z,4.83
2019-02-11T03:04:16.525Z,4.93
2019-02-11T03:06:48.912Z,4.86
2019-02-11T03:09:21.236Z,4.82
2019-02-11T03:11:53.428Z,4.71
2019-02-11T03:14:26.801Z,4.64
2019-02-11T03:16:58.581Z,4.55
2019-02-11T03:19:30.374Z,4.53
2019-02-11T03:22:02.162Z,4.48
2019-02-11T03:24:33.959Z,4.26
2019-02-11T03:27:05.737Z,4.17
2019-02-11T03:29:37.585Z,3.95
2019-02-11T03:32:09.403Z,4.01
2019-02-11T03:34:41.188Z,3.88
2019-02-11T03:37:12.952Z,3.82
2019-02-11T03:39:44.806Z,3.77
2019-02-11T03:42:16.635Z,3.62
2019-02-11T03:44:48.384Z,3.52
2019-02-11T03:47:20.209Z,3.48
2019-02-11T03:49:51.980Z,3.41
2019-02-11T03:52:23.772Z,3.42
2019-02-11T03:54:55.596Z,3.32
2019-02-11T03:57:27.356Z,3.26
2019-02-11T03:59:59.116Z,3.17
2019-02-11T04:02:30.915Z,3.18
2019-02-11T04:05:03.588Z,3.18
2019-02-11T04:07:35.437Z,3.19
2019-02-11T04:10:07.960Z,3.13
2019-02-11T04:12:39.700Z,3.11
2019-02-11T04:15:11.529Z,3.20
2019-02-11T04:17:43.356Z,3.26
2019-02-11T04:20:15.376Z,3.25
2019-02-11T04:22:47.226Z,3.25
2019-02-11T04:25:18.978Z,3.28
2019-02-11T04:27:50.755Z,3.27
2019-02-11T04:30:22.493Z,3.26
2019-02-11T04:32:54.351Z,3.28
2019-02-11T04:35:29.333Z,3.26
2019-02-11T04:38:01.272Z,3.21
2019-02-11T04:40:33.084Z,3.16
2019-02-11T04:43:04.878Z,3.06
2019-02-11T04:45:36.639Z,3.02
2019-02-11T04:48:08.411Z,3.00
2019-02-11T04:50:40.255Z,3.00
2019-02-11T04:53:11.956Z,2.94
2019-02-11T04:55:43.800Z,2.91
2019-02-11T04:58:15.594Z,2.87
2019-02-11T05:00:47.392Z,2.89
2019-02-11T05:03:19.716Z,2.94
2019-02-11T05:05:51.537Z,2.96
2019-02-11T05:08:24.348Z,3.07
2019-02-11T05:10:56.145Z,3.12
2019-02-11T05:13:27.916Z,3.24
2019-02-11T05:15:59.725Z,3.28
2019-02-11T05:18:31.628Z,3.38
2019-02-11T05:21:03.480Z,3.44
2019-02-11T05:23:35.310Z,3.53
2019-02-11T05:26:07.097Z,3.66
2019-02-11T05:28:38.950Z,3.68
2019-02-11T05:31:10.740Z,3.86
2019-02-11T05:33:42.557Z,3.94
2019-02-11T05:36:14.378Z,3.98
2019-02-11T05:38:46.483Z,4.09
2019-02-11T05:41:18.383Z,4.14
2019-02-11T05:43:50.159Z,4.22
2019-02-11T05:46:21.936Z,4.27
2019-02-11T05:48:53.727Z,4.34
2019-02-11T05:51:25.695Z,4.39
2019-02-11T05:53:57.507Z,4.45
2019-02-11T05:56:29.400Z,4.51
2019-02-11T05:59:01.227Z,4.55
2019-02-11T06:01:33.309Z,4.60
2019-02-11T06:04:05.269Z,4.59
2019-02-11T06:06:37.129Z,4.63
2019-02-11T06:09:08.984Z,4.70
2019-02-11T06:11:40.783Z,4.75
2019-02-11T06:14:12.619Z,4.80
2019-02-11T06:16:44.590Z,4.80
2019-02-11T06:19:16.305Z,4.79
2019-02-11T06:21:49.221Z,4.85
2019-02-11T06:24:21.115Z,4.84
2019-02-11T06:26:52.954Z,4.90
2019-02-11T06:29:24.940Z,4.88
2019-02-11T06:31:59.291Z,4.94
2019-02-11T06:34:31.305Z,4.96
2019-02-11T06:37:03.300Z,5.00
2019-02-11T06:39:35.141Z,4.94
2019-02-11T06:42:07.156Z,5.04
2019-02-11T06:44:39.059Z,5.05
2019-02-11T06:47:10.965Z,5.08
2019-02-11T06:49:43.014Z,5.09
2019-02-11T06:52:14.945Z,5.06
2019-02-11T06:54:49.944Z,5.07
2019-02-11T06:57:21.905Z,5.07
2019-02-11T06:59:53.825Z,5.09
2019-02-11T07:02:25.851Z,5.12
2019-02-11T07:04:57.819Z,5.10
2019-02-11T07:07:29.927Z,5.15
2019-02-11T07:10:02.099Z,5.15
2019-02-11T07:12:34.058Z,5.22
2019-02-11T07:15:07.309Z,5.15
2019-02-11T07:17:39.384Z,5.19
2019-02-11T07:20:11.643Z,5.27
2019-02-11T07:22:43.526Z,5.28
2019-02-11T07:25:16.692Z,5.28
2019-02-11T07:27:48.715Z,5.31
2019-02-11T07:30:20.734Z,5.38
2019-02-11T07:32:52.733Z,5.42
2019-02-11T07:35:24.921Z,5.40
2019-02-11T07:37:56.745Z,5.44
2019-02-11T07:40:29.853Z,5.45
2019-02-11T07:43:21.195Z,5.51
2019-02-11T07:45:59.097Z,5.59
2019-02-11T07:48:30.943Z,5.66
2019-02-11T07:51:04.074Z,5.73
2019-02-11T07:53:35.941Z,5.70
2019-02-11T07:56:07.838Z,5.78
2019-02-11T07:58:39.738Z,5.78
2019-02-11T08:01:11.603Z,5.73
2019-02-11T08:03:43.440Z,5.71
2019-02-11T08:06:28.167Z,5.70
2019-02-11T08:09:19.716Z,5.75
2019-02-11T08:11:53.877Z,5.84
2019-02-11T08:14:26.393Z,5.77
2019-02-11T08:17:08.734Z,5.74
2019-02-11T08:19:41.851Z,5.77
2019-02-11T08:22:23.031Z,5.78
2019-02-11T08:25:02.447Z,5.83
2019-02-11T08:27:47.087Z,5.85
2019-02-11T08:30:28.969Z,5.96
2019-02-11T08:33:03.013Z,6.05
2019-02-11T08:35:36.142Z,6.10
2019-02-11T08:38:09.931Z,6.32
2019-02-11T08:40:42.870Z,6.37
2019-02-11T08:43:14.974Z,6.40
2019-02-11T08:45:48.152Z,6.51
2019-02-11T08:48:21.602Z,6.57
2019-02-11T08:50:54.028Z,6.60
2019-02-11T08:53:33.510Z,6.52
2019-02-11T08:56:08.095Z,6.50
2019-02-11T08:58:48.398Z,6.62
2019-02-11T09:01:29.110Z,6.40
2019-02-11T09:04:06.459Z,6.33
2019-02-11T09:06:47.578Z,6.45
2019-02-11T09:09:18.606Z,6.53
2019-02-11T09:11:54.943Z,6.52
2019-02-11T09:14:36.653Z,6.47
2019-02-11T09:17:10.916Z,6.40
2019-02-11T09:19:47.722Z,6.42
2019-02-11T09:22:32.962Z,6.36
2019-02-11T09:25:10.306Z,6.45
2019-02-11T09:27:49.254Z,6.51
2019-02-11T09:30:25.748Z,6.64
2019-02-11T09:32:58.264Z,6.59
2019-02-11T09:35:47.802Z,6.62
2019-02-11T09:38:30.919Z,6.56
2019-02-11T09:41:04.710Z,6.32
2019-02-11T09:43:40.853Z,6.26
2019-02-11T09:46:17.257Z,6.31
2019-02-11T09:48:49.633Z,6.32
2019-02-11T09:51:22.875Z,6.41
2019-02-11T09:53:56.309Z,6.41
2019-02-11T09:56:32.638Z,6.56
2019-02-11T09:59:06.106Z,6.54
2019-02-11T10:01:39.739Z,6.67
2019-02-11T10:04:17.997Z,6.83
2019-02-11T10:06:52.261Z,6.92
2019-02-11T10:09:26.169Z,6.67
2019-02-11T10:12:04.097Z,6.63
2019-02-11T10:14:41.005Z,6.76
2019-02-11T10:17:14.793Z,6.93
2019-02-11T10:19:49.069Z,7.28
2019-02-11T10:22:28.622Z,7.25
2019-02-11T10:25:03.015Z,7.17
2019-02-11T10:27:35.249Z,6.83
2019-02-11T10:30:10.193Z,6.72
2019-02-11T10:32:49.613Z,6.53
2019-02-11T10:35:31.059Z,6.55
2019-02-11T10:38:07.952Z,6.34
2019-02-11T10:40:43.181Z,6.29
2019-02-11T10:43:17.133Z,6.19
2019-02-11T10:45:54.706Z,6.02
2019-02-11T10:48:29.144Z,5.91
2019-02-11T10:51:01.578Z,5.80
2019-02-11T10:53:33.927Z,5.93
2019-02-11T10:56:06.325Z,6.01
2019-02-11T10:58:44.034Z,6.12
2019-02-11T11:01:23.778Z,6.18
2019-02-11T11:03:57.276Z,6.26
2019-02-11T11:06:33.817Z,6.33
2019-02-11T11:09:10.826Z,6.33
2019-02-11T11:11:43.479Z,6.24
2019-02-11T11:14:30.381Z,6.18
2019-02-11T11:17:09.417Z,6.18
2019-02-11T11:19:45.086Z,6.41
2019-02-11T11:22:17.761Z,6.49
2019-02-11T11:25:03.825Z,6.34
2019-02-11T11:27:46.454Z,6.33
2019-02-11T11:30:27.210Z,6.89
2019-02-11T11:33:17.941Z,6.94
2019-02-11T11:35:55.279Z,6.81
2019-02-11T11:38:29.705Z,6.40
2019-02-11T11:41:11.888Z,6.20
2019-02-11T11:43:56.378Z,6.16
2019-02-11T11:46:41.338Z,6.20
2019-02-11T11:49:13.877Z,6.09
2019-02-11T11:51:47.356Z,5.84
2019-02-11T11:54:20.026Z,5.74
2019-02-11T11:56:52.006Z,5.78
2019-02-11T11:59:26.713Z,5.93
2019-02-11T12:01:59.106Z,6.08
2019-02-11T12:04:31.171Z,6.01
2019-02-11T12:07:03.177Z,6.03
2019-02-11T12:09:35.706Z,6.35
2019-02-11T12:12:08.592Z,6.75
2019-02-11T12:14:43.724Z,6.85
2019-02-11T12:17:18.379Z,6.99
2019-02-11T12:19:50.617Z,7.22
2019-02-11T12:22:22.712Z,7.32
2019-02-11T12:24:56.901Z,7.47
2019-02-11T12:27:30.668Z,7.48
2019-02-11T12:30:02.484Z,7.51
2019-02-11T12:32:34.708Z,7.62
2019-02-11T12:35:07.124Z,7.62
2019-02-11T12:37:39.011Z,7.68
2019-02-11T12:40:11.936Z,7.64
2019-02-11T12:42:47.970Z,7.61
2019-02-11T12:45:22.199Z,7.75
2019-02-11T12:47:54.621Z,7.76
2019-02-11T12:50:26.717Z,7.60
2019-02-11T12:52:59.921Z,7.58
2019-02-11T12:55:32.274Z,7.76
2019-02-11T12:58:05.589Z,7.90
2019-02-11T13:00:40.181Z,8.06
2019-02-11T13:03:12.216Z,8.12
2019-02-11T13:05:47.378Z,8.03
2019-02-11T13:08:24.033Z,7.86
2019-02-11T13:11:05.273Z,7.87
2019-02-11T13:13:37.026Z,7.85
2019-02-11T13:16:10.515Z,7.82
2019-02-11T13:18:42.392Z,7.91
2019-02-11T13:21:17.566Z,7.75
2019-02-11T13:23:49.539Z,7.79
2019-02-11T13:26:21.525Z,7.69
2019-02-11T13:28:53.574Z,7.76
2019-02-11T13:31:25.713Z,7.68
2019-02-11T13:33:57.685Z,7.71
2019-02-11T13:36:29.795Z,7.76
2019-02-11T13:39:01.989Z,7.76
2019-02-11T13:41:37.341Z,7.74
2019-02-11T13:44:11.679Z,7.74
2019-02-11T13:46:45.409Z,7.83
2019-02-11T13:49:18.228Z,7.65
2019-02-11T13:51:50.429Z,7.69
2019-02-11T13:54:22.413Z,7.75
2019-02-11T13:56:57.413Z,7.88
2019-02-11T13:59:29.355Z,7.84
2019-02-11T14:02:01.581Z,7.79
2019-02-11T14:04:36.479Z,7.78
2019-02-11T14:07:18.000Z,7.67
2019-02-11T14:09:49.932Z,7.53
2019-02-11T14:12:24.799Z,7.54
2019-02-11T14:14:56.897Z,7.59
2019-02-11T14:17:29.029Z,7.49
2019-02-11T14:20:05.342Z,7.33
2019-02-11T14:22:39.048Z,7.19
2019-02-11T14:25:11.967Z,7.21
2019-02-11T14:27:44.681Z,7.17
2019-02-11T14:30:17.877Z,7.12
2019-02-11T14:32:49.964Z,7.14
2019-02-11T14:35:22.226Z,7.20
2019-02-11T14:37:54.475Z,7.03
2019-02-11T14:40:26.540Z,6.90
2019-02-11T14:42:58.769Z,6.76
2019-02-11T14:45:30.878Z,6.50
2019-02-11T14:48:03.183Z,6.12
2019-02-11T14:50:35.168Z,5.80
2019-02-11T14:53:07.231Z,5.71
2019-02-11T14:55:39.379Z,5.59
2019-02-11T14:58:11.430Z,5.52
2019-02-11T15:00:43.511Z,5.39
2019-02-11T15:03:15.402Z,5.27
2019-02-11T15:05:50.487Z,5.20
2019-02-11T15:08:22.447Z,5.14
2019-02-11T15:10:54.324Z,5.14
2019-02-11T15:13:26.139Z,5.10
2019-02-11T15:15:58.017Z,5.04
2019-02-11T15:18:34.307Z,5.01
2019-02-11T15:21:06.707Z,4.97
2019-02-11T15:23:38.633Z,4.94
2019-02-11T15:26:10.636Z,4.87
2019-02-11T15:28:42.699Z,4.86
2019-02-11T15:31:14.638Z,4.81
2019-02-11T15:33:46.724Z,4.81
2019-02-11T15:36:18.704Z,4.70
2019-02-11T15:38:50.616Z,4.71
2019-02-11T15:41:22.484Z,4.75
2019-02-11T15:43:54.340Z,4.67
2019-02-11T15:46:26.299Z,4.68
2019-02-11T15:48:58.823Z,4.66
2019-02-11T15:51:30.881Z,4.65
2019-02-11T15:54:02.802Z,4.63
2019-02-11T15:56:34.699Z,4.54
2019-02-11T15:59:06.537Z,4.68
2019-02-11T16:01:39.398Z,5.15
2019-02-11T16:04:12.200Z,5.11
2019-02-11T16:06:44.078Z,5.19
2019-02-11T16:09:15.972Z,5.12
2019-02-11T16:11:47.794Z,5.07
2019-02-11T16:14:19.709Z,4.94
2019-02-11T16:16:51.776Z,4.86
2019-02-11T16:19:23.726Z,4.84
2019-02-11T16:21:55.628Z,4.74
2019-02-11T16:24:34.260Z,4.63
2019-02-11T16:27:18.863Z,4.73
2019-02-11T16:29:59.937Z,4.61
2019-02-11T16:32:30.411Z,4.61
2019-02-11T16:35:02.525Z,4.59
2019-02-11T16:37:34.754Z,4.54
2019-02-11T16:40:09.151Z,4.41
2019-02-11T16:42:41.151Z,4.41
2019-02-11T16:45:15.490Z,4.41
2019-02-11T16:47:47.590Z,4.35
2019-02-11T16:50:22.532Z,4.35
2019-02-11T16:52:55.409Z,4.28
2019-02-11T16:55:27.721Z,4.29
2019-02-11T16:58:00.104Z,4.38
2019-02-11T17:00:32.126Z,4.30
2019-02-11T17:03:41.428Z,4.22
2019-02-11T17:06:10.956Z,4.25
2019-02-11T17:08:52.485Z,4.36
2019-02-11T17:11:25.721Z,4.45
2019-02-11T17:13:58.860Z,4.52
2019-02-11T17:16:31.376Z,4.62
2019-02-11T17:19:09.466Z,4.57
2019-02-11T17:21:39.037Z,4.66
2019-02-11T17:24:11.318Z,4.60
2019-02-11T17:26:45.068Z,4.58
2019-02-11T17:29:17.470Z,4.53
2019-02-11T17:31:50.943Z,4.38
2019-02-11T17:34:24.422Z,4.47
2019-02-11T17:36:56.489Z,4.35
2019-02-11T17:39:28.311Z,4.34
2019-02-11T17:42:00.634Z,4.12
2019-02-11T17:44:32.865Z,4.17
2019-02-11T17:47:06.221Z,4.39
2019-02-11T17:49:40.700Z,4.31
2019-02-11T17:52:12.845Z,4.36
2019-02-11T17:54:44.934Z,4.45
2019-02-11T17:57:16.846Z,4.41
2019-02-11T17:59:49.407Z,4.43
2019-02-11T18:02:21.409Z,4.33
2019-02-11T18:04:53.486Z,4.30
2019-02-11T18:07:25.585Z,4.29
2019-02-11T18:09:57.517Z,4.20
2019-02-11T18:12:31.525Z,4.18
2019-02-11T18:15:09.107Z,4.13
2019-02-11T18:17:41.294Z,3.91
2019-02-11T18:20:21.677Z,4.07
2019-02-11T18:24:36.381Z,4.00
2019-02-11T18:30:31.281Z,3.80
2019-02-11T18:37:56.670Z,3.59
2019-02-11T18:40:31.053Z,3.57
2019-02-11T18:43:23.453Z,3.52
2019-02-11T18:45:57.025Z,3.39
2019-02-11T18:48:33.682Z,3.29
2019-02-11T18:51:06.195Z,3.31
2019-02-11T18:53:56.292Z,3.20
2019-02-11T18:56:56.396Z,3.22
2019-02-11T18:59:40.670Z,3.13
2019-02-11T19:02:12.751Z,3.16
2019-02-11T19:04:44.738Z,3.13
2019-02-11T19:07:16.700Z,3.15
2019-02-11T19:09:48.570Z,3.08
2019-02-11T19:12:20.397Z,2.95
2019-02-11T19:14:52.208Z,2.99
2019-02-11T19:17:24.060Z,2.92
2019-02-11T19:19:58.762Z,3.03
2019-02-11T19:22:30.661Z,3.13
2019-02-11T19:25:03.746Z,3.21
2019-02-11T19:27:35.906Z,3.11
2019-02-11T19:30:11.889Z,3.19
2019-02-11T19:32:43.976Z,3.12
2019-02-11T19:35:18.499Z,3.02
2019-02-11T19:37:51.031Z,2.96
2019-02-11T19:40:25.900Z,2.79
2019-02-11T19:43:01.944Z,2.87
2019-02-11T19:45:41.982Z,2.87
2019-02-11T19:48:14.325Z,2.80
2019-02-11T19:50:46.470Z,2.80
2019-02-11T19:53:51.988Z,2.74
2019-02-11T19:56:24.244Z,2.66
2019-02-11T19:58:57.733Z,2.47
2019-02-11T20:01:31.826Z,2.51
2019-02-11T20:04:07.597Z,2.43
2019-02-11T20:06:37.572Z,2.33
2019-02-11T20:09:10.088Z,2.48
2019-02-11T20:11:43.747Z,2.59
2019-02-11T20:14:15.813Z,2.62
2019-02-11T20:16:48.238Z,2.68
2019-02-11T20:19:20.118Z,2.57
2019-02-11T20:21:51.970Z,2.53
2019-02-11T20:24:23.961Z,2.51
2019-02-11T20:26:55.858Z,2.43
2019-02-11T20:29:27.957Z,2.46
2019-02-11T20:31:59.960Z,2.50
2019-02-11T20:34:31.850Z,2.49
2019-02-11T20:37:03.849Z,2.57
2019-02-11T20:39:35.806Z,2.63
2019-02-11T20:42:07.788Z,2.76
2019-02-11T20:44:40.756Z,2.73
2019-02-11T20:47:13.804Z,2.80
2019-02-11T20:49:51.001Z,2.85
2019-02-11T20:52:23.102Z,2.80
2019-02-11T20:54:55.140Z,2.95
2019-02-11T20:57:27.112Z,3.05
2019-02-11T20:59:59.217Z,3.19
2019-02-11T21:02:31.285Z,3.38
2019-02-11T21:05:03.193Z,3.52
2019-02-11T21:07:35.236Z,3.60
2019-02-11T21:10:09.026Z,3.66
2019-02-11T21:12:40.966Z,3.65
2019-02-11T21:15:14.547Z,3.54
2019-02-11T21:17:46.713Z,3.59
2019-02-11T21:20:35.099Z,3.57
2019-02-11T21:23:09.410Z,3.45
2019-02-11T21:25:41.260Z,3.52
2019-02-11T21:28:13.669Z,3.49
2019-02-11T21:30:45.598Z,3.44
2019-02-11T21:33:17.488Z,3.42
2019-02-11T21:35:49.419Z,3.32
2019-02-11T21:38:21.250Z,3.34
2019-02-11T21:40:53.155Z,3.24
2019-02-11T21:43:24.966Z,3.26
2019-02-11T21:45:56.840Z,3.24
2019-02-11T21:48:28.745Z,3.20
2019-02-11T21:51:00.665Z,3.16
2019-02-11T21:53:32.745Z,3.13
2019-02-11T21:56:04.622Z,3.14
2019-02-11T21:58:36.521Z,3.04
2019-02-11T22:01:08.295Z,3.01
2019-02-11T22:03:40.205Z,3.07
2019-02-11T22:06:12.291Z,3.07
2019-02-11T22:08:44.207Z,2.93
2019-02-11T22:11:16.075Z,2.92
2019-02-11T22:13:47.834Z,2.91
2019-02-11T22:16:19.642Z,2.80
2019-02-11T22:18:51.460Z,2.80
2019-02-11T22:21:23.367Z,2.82
2019-02-11T22:23:55.329Z,2.74
2019-02-11T22:26:27.189Z,2.72
2019-02-11T22:28:58.977Z,2.72
2019-02-11T22:31:31.540Z,2.62
2019-02-11T22:34:03.531Z,2.56
2019-02-11T22:36:35.409Z,2.54
2019-02-11T22:39:08.864Z,2.52
2019-02-11T22:41:41.045Z,2.49
2019-02-11T22:44:12.879Z,2.48
2019-02-11T22:46:44.719Z,2.40
2019-02-11T22:49:16.595Z,2.39
2019-02-11T22:51:48.572Z,2.36
2019-02-11T22:54:20.404Z,2.43
2019-02-11T22:56:52.352Z,2.35
2019-02-11T22:59:24.313Z,2.34
2019-02-11T23:01:58.435Z,2.33
2019-02-11T23:04:30.515Z,2.31
2019-02-11T23:07:02.633Z,2.25
2019-02-11T23:09:34.529Z,2.27
2019-02-11T23:12:06.474Z,2.19
2019-02-11T23:14:38.400Z,2.21
2019-02-11T23:17:10.331Z,2.11
2019-02-11T23:19:42.154Z,2.21
2019-02-11T23:22:14.104Z,2.13
2019-02-11T23:24:46.027Z,2.00
2019-02-11T23:27:17.881Z,2.10
2019-02-11T23:29:51.997Z,2.14
2019-02-11T23:32:25.297Z,2.05
2019-02-11T23:34:57.351Z,2.01
2019-02-11T23:37:29.228Z,2.05
2019-02-11T23:40:01.044Z,2.02
2019-02-11T23:42:34.193Z,2.03
2019-02-11T23:45:06.579Z,1.97
2019-02-11T23:47:38.403Z,1.96
2019-02-11T23:50:10.491Z,1.98
2019-02-11T23:52:42.299Z,1.90
2019-02-11T23:55:14.159Z,1.97
2019-02-11T23:57:45.974Z,1.92
